sensor_id;sensor_type;location;lat;lon;timestamp;temperature;humidity
18126;DHT22;53956;52.442;13.284;2023-07-30T00:05:13;21.50;99.90
18126;DHT22;53956;52.442;13.284;2023-07-30T00:07:41;21.50;99.90
18126;DHT22;53956;52.442;13.284;2023-07-30T00:10:08;21.60;99.90
18126;DHT22;53956;52.442;13.284;2023-07-30T00:12:34;21.50;99.90
18126;DHT22;53956;52.442;13.284;2023-07-30T00:15:01;21.50;99.90
18126;DHT22;53956;52.442;13.284;2023-07-30T00:17:28;21.50;99.90
18126;DHT22;53956;52.442;13.284;2023-07-30T00:19:55;21.60;99.90
18126;DHT22;53956;52.442;13.284;2023-07-30T00:22:21;21.60;99.90
18126;DHT22;53956;52.442;13.284;2023-07-30T00:24:49;21.50;99.90
18126;DHT22;53956;52.442;13.284;2023-07-30T00:27:16;21.50;99.90
18126;DHT22;53956;52.442;13.284;2023-07-30T00:29:43;21.40;99.90
18126;DHT22;53956;52.442;13.284;2023-07-30T00:32:09;21.50;99.90
18126;DHT22;53956;52.442;13.284;2023-07-30T00:34:36;21.50;99.90
18126;DHT22;53956;52.442;13.284;2023-07-30T00:37:04;21.40;99.90
18126;DHT22;53956;52.442;13.284;2023-07-30T00:39:31;21.40;99.90
18126;DHT22;53956;52.442;13.284;2023-07-30T00:41:58;21.40;99.90
18126;DHT22;53956;52.442;13.284;2023-07-30T00:44:25;21.40;99.90
18126;DHT22;53956;52.442;13.284;2023-07-30T00:46:52;21.40;99.90
18126;DHT22;53956;52.442;13.284;2023-07-30T00:49:19;21.30;99.90
18126;DHT22;53956;52.442;13.284;2023-07-30T00:51:46;21.30;99.90
18126;DHT22;53956;52.442;13.284;2023-07-30T00:54:13;21.30;99.90
18126;DHT22;53956;52.442;13.284;2023-07-30T00:56:42;21.20;99.90
18126;DHT22;53956;52.442;13.284;2023-07-30T00:59:14;21.30;99.90
18126;DHT22;53956;52.442;13.284;2023-07-30T01:01:42;21.20;99.90
18126;DHT22;53956;52.442;13.284;2023-07-30T01:04:09;21.30;99.90
18126;DHT22;53956;52.442;13.284;2023-07-30T01:06:36;21.20;99.90
18126;DHT22;53956;52.442;13.284;2023-07-30T01:09:02;21.20;99.90
18126;DHT22;53956;52.442;13.284;2023-07-30T01:11:29;21.20;99.90
18126;DHT22;53956;52.442;13.284;2023-07-30T01:13:57;21.20;99.90
18126;DHT22;53956;52.442;13.284;2023-07-30T01:16:26;21.20;99.90
18126;DHT22;53956;52.442;13.284;2023-07-30T01:18:52;21.20;99.90
18126;DHT22;53956;52.442;13.284;2023-07-30T01:21:20;21.30;99.90
18126;DHT22;53956;52.442;13.284;2023-07-30T01:23:47;21.20;99.90
18126;DHT22;53956;52.442;13.284;2023-07-30T01:26:19;21.20;99.90
18126;DHT22;53956;52.442;13.284;2023-07-30T01:28:52;21.20;99.90
18126;DHT22;53956;52.442;13.284;2023-07-30T01:31:21;21.10;99.90
18126;DHT22;53956;52.442;13.284;2023-07-30T01:33:54;21.20;99.90
18126;DHT22;53956;52.442;13.284;2023-07-30T01:36:22;21.10;99.90
18126;DHT22;53956;52.442;13.284;2023-07-30T01:38:50;21.00;99.90
18126;DHT22;53956;52.442;13.284;2023-07-30T01:41:17;21.10;99.90
18126;DHT22;53956;52.442;13.284;2023-07-30T01:43:44;21.00;99.90
18126;DHT22;53956;52.442;13.284;2023-07-30T01:46:10;21.00;99.90
18126;DHT22;53956;52.442;13.284;2023-07-30T01:48:37;21.00;99.90
18126;DHT22;53956;52.442;13.284;2023-07-30T01:51:04;21.00;99.90
18126;DHT22;53956;52.442;13.284;2023-07-30T01:53:31;21.10;99.90
18126;DHT22;53956;52.442;13.284;2023-07-30T01:55:58;20.90;99.90
18126;DHT22;53956;52.442;13.284;2023-07-30T01:58:25;20.90;99.90
18126;DHT22;53956;52.442;13.284;2023-07-30T02:00:51;20.90;99.90
18126;DHT22;53956;52.442;13.284;2023-07-30T02:03:18;20.80;99.90
18126;DHT22;53956;52.442;13.284;2023-07-30T02:05:44;20.80;99.90
18126;DHT22;53956;52.442;13.284;2023-07-30T02:08:11;20.80;99.90
18126;DHT22;53956;52.442;13.284;2023-07-30T02:10:42;20.80;99.90
18126;DHT22;53956;52.442;13.284;2023-07-30T02:13:09;20.70;99.90
18126;DHT22;53956;52.442;13.284;2023-07-30T02:15:40;20.70;99.90
18126;DHT22;53956;52.442;13.284;2023-07-30T02:18:06;20.70;99.90
18126;DHT22;53956;52.442;13.284;2023-07-30T02:20:35;20.70;99.90
18126;DHT22;53956;52.442;13.284;2023-07-30T02:23:02;20.70;99.90
18126;DHT22;53956;52.442;13.284;2023-07-30T02:25:28;20.70;99.90
18126;DHT22;53956;52.442;13.284;2023-07-30T02:27:56;20.70;99.90
18126;DHT22;53956;52.442;13.284;2023-07-30T02:30:23;20.80;99.90
18126;DHT22;53956;52.442;13.284;2023-07-30T02:32:49;20.70;99.90
18126;DHT22;53956;52.442;13.284;2023-07-30T02:35:16;20.70;99.90
18126;DHT22;53956;52.442;13.284;2023-07-30T02:37:43;20.80;99.90
18126;DHT22;53956;52.442;13.284;2023-07-30T02:40:10;20.70;99.90
18126;DHT22;53956;52.442;13.284;2023-07-30T02:42:37;20.80;99.90
18126;DHT22;53956;52.442;13.284;2023-07-30T02:45:06;20.70;99.90
18126;DHT22;53956;52.442;13.284;2023-07-30T02:47:33;20.70;99.90
18126;DHT22;53956;52.442;13.284;2023-07-30T02:49:59;20.60;99.90
18126;DHT22;53956;52.442;13.284;2023-07-30T02:52:26;20.60;99.90
18126;DHT22;53956;52.442;13.284;2023-07-30T02:54:53;20.60;99.90
18126;DHT22;53956;52.442;13.284;2023-07-30T02:57:19;20.60;99.90
18126;DHT22;53956;52.442;13.284;2023-07-30T02:59:46;20.60;99.90
18126;DHT22;53956;52.442;13.284;2023-07-30T03:02:14;20.60;99.90
18126;DHT22;53956;52.442;13.284;2023-07-30T03:04:41;20.50;99.90
18126;DHT22;53956;52.442;13.284;2023-07-30T03:07:08;20.50;99.90
18126;DHT22;53956;52.442;13.284;2023-07-30T03:09:35;20.50;99.90
18126;DHT22;53956;52.442;13.284;2023-07-30T03:12:02;20.50;99.90
18126;DHT22;53956;52.442;13.284;2023-07-30T03:14:29;20.50;99.90
18126;DHT22;53956;52.442;13.284;2023-07-30T03:16:56;20.50;99.90
18126;DHT22;53956;52.442;13.284;2023-07-30T03:19:24;20.40;99.90
18126;DHT22;53956;52.442;13.284;2023-07-30T03:21:51;20.50;99.90
18126;DHT22;53956;52.442;13.284;2023-07-30T03:24:17;20.40;99.90
18126;DHT22;53956;52.442;13.284;2023-07-30T03:26:44;20.40;99.90
18126;DHT22;53956;52.442;13.284;2023-07-30T03:29:10;20.40;99.90
18126;DHT22;53956;52.442;13.284;2023-07-30T03:31:37;20.50;99.90
18126;DHT22;53956;52.442;13.284;2023-07-30T03:34:05;20.40;99.90
18126;DHT22;53956;52.442;13.284;2023-07-30T03:36:33;20.50;99.90
18126;DHT22;53956;52.442;13.284;2023-07-30T03:38:59;20.60;99.90
18126;DHT22;53956;52.442;13.284;2023-07-30T03:41:26;20.40;99.90
18126;DHT22;53956;52.442;13.284;2023-07-30T03:43:53;20.40;99.90
18126;DHT22;53956;52.442;13.284;2023-07-30T03:46:19;20.50;99.90
18126;DHT22;53956;52.442;13.284;2023-07-30T03:48:46;20.50;99.90
18126;DHT22;53956;52.442;13.284;2023-07-30T03:51:13;20.50;99.90
18126;DHT22;53956;52.442;13.284;2023-07-30T03:53:41;20.50;99.90
18126;DHT22;53956;52.442;13.284;2023-07-30T03:56:08;20.40;99.90
18126;DHT22;53956;52.442;13.284;2023-07-30T03:58:34;20.50;99.90
18126;DHT22;53956;52.442;13.284;2023-07-30T04:01:01;20.60;99.90
18126;DHT22;53956;52.442;13.284;2023-07-30T04:03:28;20.50;99.90
18126;DHT22;53956;52.442;13.284;2023-07-30T04:05:54;20.50;99.90
18126;DHT22;53956;52.442;13.284;2023-07-30T04:08:21;20.50;99.90
18126;DHT22;53956;52.442;13.284;2023-07-30T04:10:49;20.70;99.90
18126;DHT22;53956;52.442;13.284;2023-07-30T04:13:16;20.60;99.90
18126;DHT22;53956;52.442;13.284;2023-07-30T04:15:43;20.70;99.90
18126;DHT22;53956;52.442;13.284;2023-07-30T04:18:09;20.60;99.90
18126;DHT22;53956;52.442;13.284;2023-07-30T04:20:36;20.70;99.90
18126;DHT22;53956;52.442;13.284;2023-07-30T04:23:03;20.70;99.90
18126;DHT22;53956;52.442;13.284;2023-07-30T04:25:29;20.60;99.90
18126;DHT22;53956;52.442;13.284;2023-07-30T04:27:57;20.60;99.90
18126;DHT22;53956;52.442;13.284;2023-07-30T04:30:24;20.80;99.90
18126;DHT22;53956;52.442;13.284;2023-07-30T04:32:51;20.80;99.90
18126;DHT22;53956;52.442;13.284;2023-07-30T04:35:18;20.80;99.90
18126;DHT22;53956;52.442;13.284;2023-07-30T04:37:44;20.80;99.90
18126;DHT22;53956;52.442;13.284;2023-07-30T04:40:12;20.90;99.90
18126;DHT22;53956;52.442;13.284;2023-07-30T04:42:39;20.90;99.90
18126;DHT22;53956;52.442;13.284;2023-07-30T04:45:08;21.00;99.90
18126;DHT22;53956;52.442;13.284;2023-07-30T04:47:38;21.10;99.90
18126;DHT22;53956;52.442;13.284;2023-07-30T04:50:05;21.10;99.90
18126;DHT22;53956;52.442;13.284;2023-07-30T04:52:32;21.20;99.90
18126;DHT22;53956;52.442;13.284;2023-07-30T04:54:58;21.30;99.90
18126;DHT22;53956;52.442;13.284;2023-07-30T04:57:25;21.20;99.90
18126;DHT22;53956;52.442;13.284;2023-07-30T04:59:52;21.30;99.90
18126;DHT22;53956;52.442;13.284;2023-07-30T05:02:20;21.40;99.90
18126;DHT22;53956;52.442;13.284;2023-07-30T05:04:47;21.60;99.90
18126;DHT22;53956;52.442;13.284;2023-07-30T05:07:13;21.90;99.90
18126;DHT22;53956;52.442;13.284;2023-07-30T05:09:40;22.40;99.90
18126;DHT22;53956;52.442;13.284;2023-07-30T05:12:07;22.80;99.90
18126;DHT22;53956;52.442;13.284;2023-07-30T05:14:34;23.30;99.90
18126;DHT22;53956;52.442;13.284;2023-07-30T05:17:00;23.60;99.90
18126;DHT22;53956;52.442;13.284;2023-07-30T05:19:29;23.60;99.90
18126;DHT22;53956;52.442;13.284;2023-07-30T05:21:57;23.80;99.90
18126;DHT22;53956;52.442;13.284;2023-07-30T05:24:25;23.70;99.90
18126;DHT22;53956;52.442;13.284;2023-07-30T05:26:51;23.90;99.90
18126;DHT22;53956;52.442;13.284;2023-07-30T05:29:18;24.20;99.90
18126;DHT22;53956;52.442;13.284;2023-07-30T05:31:44;24.30;99.90
18126;DHT22;53956;52.442;13.284;2023-07-30T05:34:11;24.70;99.90
18126;DHT22;53956;52.442;13.284;2023-07-30T05:36:39;25.00;99.90
18126;DHT22;53956;52.442;13.284;2023-07-30T05:39:05;25.30;99.90
18126;DHT22;53956;52.442;13.284;2023-07-30T05:41:32;25.50;99.90
18126;DHT22;53956;52.442;13.284;2023-07-30T05:43:59;25.70;99.80
18126;DHT22;53956;52.442;13.284;2023-07-30T05:46:26;25.90;99.90
18126;DHT22;53956;52.442;13.284;2023-07-30T05:48:52;26.10;98.30
18126;DHT22;53956;52.442;13.284;2023-07-30T05:51:19;26.30;97.30
18126;DHT22;53956;52.442;13.284;2023-07-30T05:53:48;26.30;96.70
18126;DHT22;53956;52.442;13.284;2023-07-30T05:56:14;26.40;95.20
18126;DHT22;53956;52.442;13.284;2023-07-30T05:58:44;26.60;94.20
18126;DHT22;53956;52.442;13.284;2023-07-30T06:01:10;26.90;93.70
18126;DHT22;53956;52.442;13.284;2023-07-30T06:03:37;26.70;94.80
18126;DHT22;53956;52.442;13.284;2023-07-30T06:06:04;26.50;95.20
18126;DHT22;53956;52.442;13.284;2023-07-30T06:08:30;25.80;98.80
18126;DHT22;53956;52.442;13.284;2023-07-30T06:11:02;25.30;99.90
18126;DHT22;53956;52.442;13.284;2023-07-30T06:13:29;24.90;99.90
18126;DHT22;53956;52.442;13.284;2023-07-30T06:15:56;24.60;99.90
18126;DHT22;53956;52.442;13.284;2023-07-30T06:18:23;24.20;99.90
18126;DHT22;53956;52.442;13.284;2023-07-30T06:20:49;24.00;99.90
18126;DHT22;53956;52.442;13.284;2023-07-30T06:23:16;23.90;99.90
18126;DHT22;53956;52.442;13.284;2023-07-30T06:25:42;23.80;99.90
18126;DHT22;53956;52.442;13.284;2023-07-30T06:28:10;23.90;99.90
18126;DHT22;53956;52.442;13.284;2023-07-30T06:33:25;25.10;99.90
18126;DHT22;53956;52.442;13.284;2023-07-30T06:35:52;26.30;99.90
18126;DHT22;53956;52.442;13.284;2023-07-30T06:38:23;25.90;99.90
18126;DHT22;53956;52.442;13.284;2023-07-30T06:40:50;25.40;99.90
18126;DHT22;53956;52.442;13.284;2023-07-30T06:43:18;24.90;99.90
18126;DHT22;53956;52.442;13.284;2023-07-30T06:45:45;24.50;99.90
18126;DHT22;53956;52.442;13.284;2023-07-30T06:48:11;24.30;99.90
18126;DHT22;53956;52.442;13.284;2023-07-30T06:50:39;24.40;99.90
18126;DHT22;53956;52.442;13.284;2023-07-30T06:53:05;25.30;99.90
18126;DHT22;53956;52.442;13.284;2023-07-30T06:55:32;25.60;99.90
18126;DHT22;53956;52.442;13.284;2023-07-30T06:57:59;26.00;99.90
18126;DHT22;53956;52.442;13.284;2023-07-30T07:00:27;26.20;99.90
18126;DHT22;53956;52.442;13.284;2023-07-30T07:02:54;26.50;99.30
18126;DHT22;53956;52.442;13.284;2023-07-30T07:05:21;27.20;97.50
18126;DHT22;53956;52.442;13.284;2023-07-30T07:07:51;27.60;95.40
18126;DHT22;53956;52.442;13.284;2023-07-30T07:10:18;27.30;95.20
18126;DHT22;53956;52.442;13.284;2023-07-30T07:12:45;27.40;95.30
18126;DHT22;53956;52.442;13.284;2023-07-30T07:15:13;26.90;95.20
18126;DHT22;53956;52.442;13.284;2023-07-30T07:17:44;27.30;94.90
18126;DHT22;53956;52.442;13.284;2023-07-30T07:20:11;27.20;93.10
18126;DHT22;53956;52.442;13.284;2023-07-30T07:22:37;27.40;94.40
18126;DHT22;53956;52.442;13.284;2023-07-30T07:25:05;28.10;92.60
18126;DHT22;53956;52.442;13.284;2023-07-30T07:27:31;27.50;93.30
18126;DHT22;53956;52.442;13.284;2023-07-30T07:29:58;28.10;92.50
18126;DHT22;53956;52.442;13.284;2023-07-30T07:32:25;28.40;90.10
18126;DHT22;53956;52.442;13.284;2023-07-30T07:34:53;28.70;88.90
18126;DHT22;53956;52.442;13.284;2023-07-30T07:37:20;28.00;90.60
18126;DHT22;53956;52.442;13.284;2023-07-30T07:39:46;28.40;89.50
18126;DHT22;53956;52.442;13.284;2023-07-30T07:42:13;28.40;88.10
18126;DHT22;53956;52.442;13.284;2023-07-30T07:44:40;28.30;90.60
18126;DHT22;53956;52.442;13.284;2023-07-30T07:47:09;28.30;88.90
18126;DHT22;53956;52.442;13.284;2023-07-30T07:49:41;28.20;90.00
18126;DHT22;53956;52.442;13.284;2023-07-30T07:52:09;28.40;89.20
18126;DHT22;53956;52.442;13.284;2023-07-30T07:54:35;28.40;89.20
18126;DHT22;53956;52.442;13.284;2023-07-30T07:57:03;28.30;89.60
18126;DHT22;53956;52.442;13.284;2023-07-30T07:59:29;28.00;89.60
18126;DHT22;53956;52.442;13.284;2023-07-30T08:01:59;27.70;91.20
18126;DHT22;53956;52.442;13.284;2023-07-30T08:07:00;27.30;93.40
18126;DHT22;53956;52.442;13.284;2023-07-30T08:09:30;27.30;93.70
18126;DHT22;53956;52.442;13.284;2023-07-30T08:11:57;27.30;92.40
18126;DHT22;53956;52.442;13.284;2023-07-30T08:14:24;27.20;90.60
18126;DHT22;53956;52.442;13.284;2023-07-30T08:16:50;27.40;91.30
18126;DHT22;53956;52.442;13.284;2023-07-30T08:19:17;27.10;91.10
18126;DHT22;53956;52.442;13.284;2023-07-30T08:21:44;26.60;91.30
18126;DHT22;53956;52.442;13.284;2023-07-30T08:24:13;26.60;91.50
18126;DHT22;53956;52.442;13.284;2023-07-30T08:26:44;26.70;92.00
18126;DHT22;53956;52.442;13.284;2023-07-30T08:29:12;26.60;92.30
18126;DHT22;53956;52.442;13.284;2023-07-30T08:31:40;26.70;91.30
18126;DHT22;53956;52.442;13.284;2023-07-30T08:34:06;26.60;91.20
18126;DHT22;53956;52.442;13.284;2023-07-30T08:36:33;26.70;92.30
18126;DHT22;53956;52.442;13.284;2023-07-30T08:39:01;26.80;91.10
18126;DHT22;53956;52.442;13.284;2023-07-30T08:41:29;26.90;88.90
18126;DHT22;53956;52.442;13.284;2023-07-30T08:43:57;26.60;89.80
18126;DHT22;53956;52.442;13.284;2023-07-30T08:46:24;26.60;90.80
18126;DHT22;53956;52.442;13.284;2023-07-30T08:48:50;26.50;90.00
18126;DHT22;53956;52.442;13.284;2023-07-30T08:51:17;26.50;91.20
18126;DHT22;53956;52.442;13.284;2023-07-30T08:53:45;26.50;91.70
18126;DHT22;53956;52.442;13.284;2023-07-30T08:56:12;26.40;91.80
18126;DHT22;53956;52.442;13.284;2023-07-30T08:58:40;26.50;91.20
18126;DHT22;53956;52.442;13.284;2023-07-30T09:03:35;26.10;91.80
18126;DHT22;53956;52.442;13.284;2023-07-30T09:06:03;26.40;89.70
18126;DHT22;53956;52.442;13.284;2023-07-30T09:08:30;26.30;91.40
18126;DHT22;53956;52.442;13.284;2023-07-30T09:10:57;26.10;90.90
18126;DHT22;53956;52.442;13.284;2023-07-30T09:13:27;25.70;91.00
18126;DHT22;53956;52.442;13.284;2023-07-30T09:15:54;25.70;92.10
18126;DHT22;53956;52.442;13.284;2023-07-30T09:18:20;26.10;93.40
18126;DHT22;53956;52.442;13.284;2023-07-30T09:20:48;26.00;92.10
18126;DHT22;53956;52.442;13.284;2023-07-30T09:23:17;26.20;91.80
18126;DHT22;53956;52.442;13.284;2023-07-30T09:25:47;26.20;90.20
18126;DHT22;53956;52.442;13.284;2023-07-30T09:28:14;26.30;88.80
18126;DHT22;53956;52.442;13.284;2023-07-30T09:30:41;26.60;86.20
18126;DHT22;53956;52.442;13.284;2023-07-30T09:33:07;26.90;88.10
18126;DHT22;53956;52.442;13.284;2023-07-30T09:35:34;26.80;86.90
18126;DHT22;53956;52.442;13.284;2023-07-30T09:38:03;26.60;84.60
18126;DHT22;53956;52.442;13.284;2023-07-30T09:40:36;26.30;86.60
18126;DHT22;53956;52.442;13.284;2023-07-30T09:43:04;26.20;86.80
18126;DHT22;53956;52.442;13.284;2023-07-30T09:45:33;26.00;87.60
18126;DHT22;53956;52.442;13.284;2023-07-30T09:50:30;26.20;87.20
18126;DHT22;53956;52.442;13.284;2023-07-30T09:52:58;26.50;84.60
18126;DHT22;53956;52.442;13.284;2023-07-30T09:55:28;26.40;83.90
18126;DHT22;53956;52.442;13.284;2023-07-30T09:57:57;26.60;84.50
18126;DHT22;53956;52.442;13.284;2023-07-30T10:00:23;26.40;84.20
18126;DHT22;53956;52.442;13.284;2023-07-30T10:02:55;26.20;85.60
18126;DHT22;53956;52.442;13.284;2023-07-30T10:08:01;26.00;84.60
18126;DHT22;53956;52.442;13.284;2023-07-30T10:10:31;26.20;84.00
18126;DHT22;53956;52.442;13.284;2023-07-30T10:13:00;26.10;83.00
18126;DHT22;53956;52.442;13.284;2023-07-30T10:18:11;26.40;81.00
18126;DHT22;53956;52.442;13.284;2023-07-30T10:20:39;26.50;80.20
18126;DHT22;53956;52.442;13.284;2023-07-30T10:23:06;26.60;80.80
18126;DHT22;53956;52.442;13.284;2023-07-30T10:28:27;26.30;82.80
18126;DHT22;53956;52.442;13.284;2023-07-30T10:31:01;26.60;80.70
18126;DHT22;53956;52.442;13.284;2023-07-30T10:36:11;26.60;80.90
18126;DHT22;53956;52.442;13.284;2023-07-30T10:38:39;26.60;78.90
18126;DHT22;53956;52.442;13.284;2023-07-30T10:41:08;26.70;80.00
18126;DHT22;53956;52.442;13.284;2023-07-30T10:43:39;26.50;81.10
18126;DHT22;53956;52.442;13.284;2023-07-30T10:46:06;26.50;81.00
18126;DHT22;53956;52.442;13.284;2023-07-30T10:48:34;26.70;79.60
18126;DHT22;53956;52.442;13.284;2023-07-30T10:56:53;26.70;79.30
18126;DHT22;53956;52.442;13.284;2023-07-30T11:00:05;26.60;77.70
18126;DHT22;53956;52.442;13.284;2023-07-30T11:02:32;26.80;78.20
18126;DHT22;53956;52.442;13.284;2023-07-30T11:05:11;26.90;76.90
18126;DHT22;53956;52.442;13.284;2023-07-30T11:18:16;26.60;75.30
18126;DHT22;53956;52.442;13.284;2023-07-30T11:20:46;26.60;75.70
18126;DHT22;53956;52.442;13.284;2023-07-30T11:23:19;26.50;76.00
18126;DHT22;53956;52.442;13.284;2023-07-30T11:28:53;26.50;74.60
18126;DHT22;53956;52.442;13.284;2023-07-30T11:35:01;26.50;76.00
18126;DHT22;53956;52.442;13.284;2023-07-30T11:37:28;26.50;75.60
18126;DHT22;53956;52.442;13.284;2023-07-30T11:39:55;26.60;76.00
18126;DHT22;53956;52.442;13.284;2023-07-30T11:43:10;26.40;75.60
18126;DHT22;53956;52.442;13.284;2023-07-30T11:46:11;26.60;76.30
18126;DHT22;53956;52.442;13.284;2023-07-30T11:51:20;26.70;76.10
18126;DHT22;53956;52.442;13.284;2023-07-30T11:53:48;26.70;75.50
18126;DHT22;53956;52.442;13.284;2023-07-30T11:59:30;26.80;76.90
18126;DHT22;53956;52.442;13.284;2023-07-30T12:01:57;26.60;74.30
18126;DHT22;53956;52.442;13.284;2023-07-30T12:04:24;26.70;74.90
18126;DHT22;53956;52.442;13.284;2023-07-30T12:06:52;26.60;73.60
18126;DHT22;53956;52.442;13.284;2023-07-30T12:09:21;26.70;72.90
18126;DHT22;53956;52.442;13.284;2023-07-30T12:11:50;26.50;73.80
18126;DHT22;53956;52.442;13.284;2023-07-30T12:14:17;26.50;75.50
18126;DHT22;53956;52.442;13.284;2023-07-30T12:16:43;26.50;75.60
18126;DHT22;53956;52.442;13.284;2023-07-30T12:28:41;26.70;77.00
18126;DHT22;53956;52.442;13.284;2023-07-30T12:41:55;26.60;73.40
18126;DHT22;53956;52.442;13.284;2023-07-30T12:44:40;26.40;73.70
18126;DHT22;53956;52.442;13.284;2023-07-30T12:52:20;26.40;71.90
18126;DHT22;53956;52.442;13.284;2023-07-30T12:54:47;26.40;71.50
18126;DHT22;53956;52.442;13.284;2023-07-30T13:03:17;26.50;73.30
18126;DHT22;53956;52.442;13.284;2023-07-30T13:05:50;26.40;73.30
18126;DHT22;53956;52.442;13.284;2023-07-30T13:08:17;26.40;73.30
18126;DHT22;53956;52.442;13.284;2023-07-30T13:10:43;26.50;73.90
18126;DHT22;53956;52.442;13.284;2023-07-30T13:13:10;26.40;71.90
18126;DHT22;53956;52.442;13.284;2023-07-30T13:20:57;26.30;72.70
18126;DHT22;53956;52.442;13.284;2023-07-30T13:23:25;26.30;72.10
18126;DHT22;53956;52.442;13.284;2023-07-30T13:25:52;26.30;72.00
18126;DHT22;53956;52.442;13.284;2023-07-30T13:28:18;26.20;72.90
18126;DHT22;53956;52.442;13.284;2023-07-30T13:30:45;26.40;71.60
18126;DHT22;53956;52.442;13.284;2023-07-30T13:49:38;26.10;68.40
18126;DHT22;53956;52.442;13.284;2023-07-30T13:57:21;26.00;68.80
18126;DHT22;53956;52.442;13.284;2023-07-30T14:02:26;26.00;68.60
18126;DHT22;53956;52.442;13.284;2023-07-30T14:04:54;26.00;69.00
18126;DHT22;53956;52.442;13.284;2023-07-30T14:07:21;25.90;69.00
18126;DHT22;53956;52.442;13.284;2023-07-30T14:09:47;25.90;69.60
18126;DHT22;53956;52.442;13.284;2023-07-30T14:12:14;25.80;70.80
18126;DHT22;53956;52.442;13.284;2023-07-30T14:14:41;25.90;71.90
18126;DHT22;53956;52.442;13.284;2023-07-30T14:24:57;25.60;74.40
18126;DHT22;53956;52.442;13.284;2023-07-30T14:27:24;25.50;75.30
18126;DHT22;53956;52.442;13.284;2023-07-30T14:48:21;24.70;84.70
18126;DHT22;53956;52.442;13.284;2023-07-30T14:50:48;24.50;85.20
18126;DHT22;53956;52.442;13.284;2023-07-30T14:53:15;24.50;86.20
18126;DHT22;53956;52.442;13.284;2023-07-30T14:55:43;24.30;89.00
18126;DHT22;53956;52.442;13.284;2023-07-30T14:58:09;24.40;91.10
18126;DHT22;53956;52.442;13.284;2023-07-30T15:00:36;24.20;90.50
18126;DHT22;53956;52.442;13.284;2023-07-30T15:16:13;24.00;99.00
18126;DHT22;53956;52.442;13.284;2023-07-30T15:18:41;23.90;99.10
18126;DHT22;53956;52.442;13.284;2023-07-30T15:21:09;23.90;99.20
18126;DHT22;53956;52.442;13.284;2023-07-30T15:23:36;23.90;99.80
18126;DHT22;53956;52.442;13.284;2023-07-30T15:26:02;24.00;98.80
18126;DHT22;53956;52.442;13.284;2023-07-30T15:28:29;24.00;98.70
18126;DHT22;53956;52.442;13.284;2023-07-30T15:30:56;24.00;99.20
18126;DHT22;53956;52.442;13.284;2023-07-30T15:33:25;24.00;99.90
18126;DHT22;53956;52.442;13.284;2023-07-30T15:35:52;24.20;99.90
18126;DHT22;53956;52.442;13.284;2023-07-30T15:38:19;24.20;99.90
18126;DHT22;53956;52.442;13.284;2023-07-30T15:40:45;24.10;99.90
18126;DHT22;53956;52.442;13.284;2023-07-30T15:46:10;23.90;99.30
18126;DHT22;53956;52.442;13.284;2023-07-30T15:48:40;24.00;99.50
18126;DHT22;53956;52.442;13.284;2023-07-30T15:51:07;24.00;99.60
18126;DHT22;53956;52.442;13.284;2023-07-30T15:53:34;24.00;99.90
18126;DHT22;53956;52.442;13.284;2023-07-30T15:56:01;24.00;99.70
18126;DHT22;53956;52.442;13.284;2023-07-30T15:58:29;24.00;99.90
18126;DHT22;53956;52.442;13.284;2023-07-30T16:00:56;24.20;99.50
18126;DHT22;53956;52.442;13.284;2023-07-30T16:03:23;24.10;99.90
18126;DHT22;53956;52.442;13.284;2023-07-30T16:05:51;24.10;99.30
18126;DHT22;53956;52.442;13.284;2023-07-30T16:08:18;23.90;99.90
18126;DHT22;53956;52.442;13.284;2023-07-30T16:10:45;24.00;99.90
18126;DHT22;53956;52.442;13.284;2023-07-30T16:13:12;24.00;99.40
18126;DHT22;53956;52.442;13.284;2023-07-30T16:15:38;24.00;99.90
18126;DHT22;53956;52.442;13.284;2023-07-30T16:18:05;24.00;99.40
18126;DHT22;53956;52.442;13.284;2023-07-30T16:20:32;24.00;98.90
18126;DHT22;53956;52.442;13.284;2023-07-30T16:23:00;24.00;98.70
18126;DHT22;53956;52.442;13.284;2023-07-30T16:25:27;24.10;99.20
18126;DHT22;53956;52.442;13.284;2023-07-30T16:27:53;24.00;99.20
18126;DHT22;53956;52.442;13.284;2023-07-30T16:30:20;24.00;99.60
18126;DHT22;53956;52.442;13.284;2023-07-30T16:32:47;24.00;97.60
18126;DHT22;53956;52.442;13.284;2023-07-30T16:35:14;24.00;98.00
18126;DHT22;53956;52.442;13.284;2023-07-30T16:37:41;24.10;98.20
18126;DHT22;53956;52.442;13.284;2023-07-30T16:40:11;24.20;98.20
18126;DHT22;53956;52.442;13.284;2023-07-30T16:42:39;24.20;98.40
18126;DHT22;53956;52.442;13.284;2023-07-30T16:45:06;24.10;96.60
18126;DHT22;53956;52.442;13.284;2023-07-30T16:47:33;24.20;97.30
18126;DHT22;53956;52.442;13.284;2023-07-30T16:50:00;24.10;96.00
18126;DHT22;53956;52.442;13.284;2023-07-30T16:52:26;23.90;95.00
18126;DHT22;53956;52.442;13.284;2023-07-30T16:54:53;24.00;95.50
18126;DHT22;53956;52.442;13.284;2023-07-30T16:57:21;24.00;95.20
18126;DHT22;53956;52.442;13.284;2023-07-30T16:59:48;24.00;96.10
18126;DHT22;53956;52.442;13.284;2023-07-30T17:02:15;23.80;96.60
18126;DHT22;53956;52.442;13.284;2023-07-30T17:04:41;24.00;96.20
18126;DHT22;53956;52.442;13.284;2023-07-30T17:07:08;24.00;96.40
18126;DHT22;53956;52.442;13.284;2023-07-30T17:12:05;24.00;95.70
18126;DHT22;53956;52.442;13.284;2023-07-30T17:14:33;24.00;96.00
18126;DHT22;53956;52.442;13.284;2023-07-30T17:17:00;23.90;95.90
18126;DHT22;53956;52.442;13.284;2023-07-30T17:19:27;23.90;95.30
18126;DHT22;53956;52.442;13.284;2023-07-30T17:26:04;23.90;94.60
18126;DHT22;53956;52.442;13.284;2023-07-30T17:28:31;23.90;94.70
18126;DHT22;53956;52.442;13.284;2023-07-30T17:30:59;23.90;94.70
18126;DHT22;53956;52.442;13.284;2023-07-30T17:33:27;23.80;95.00
18126;DHT22;53956;52.442;13.284;2023-07-30T17:36:00;23.90;95.30
18126;DHT22;53956;52.442;13.284;2023-07-30T17:41:37;23.80;95.10
18126;DHT22;53956;52.442;13.284;2023-07-30T17:44:03;23.90;94.90
18126;DHT22;53956;52.442;13.284;2023-07-30T17:46:31;23.90;95.40
18126;DHT22;53956;52.442;13.284;2023-07-30T17:48:58;24.00;95.50
18126;DHT22;53956;52.442;13.284;2023-07-30T17:51:25;24.00;96.00
18126;DHT22;53956;52.442;13.284;2023-07-30T17:53:52;23.90;95.30
18126;DHT22;53956;52.442;13.284;2023-07-30T17:56:19;23.90;95.00
18126;DHT22;53956;52.442;13.284;2023-07-30T17:58:48;23.80;95.10
18126;DHT22;53956;52.442;13.284;2023-07-30T18:01:14;23.80;95.50
18126;DHT22;53956;52.442;13.284;2023-07-30T18:03:43;23.80;95.70
18126;DHT22;53956;52.442;13.284;2023-07-30T18:06:10;23.70;96.20